sensor_id;sensor_type;location;lat;lon;timestamp;temperature;humidity
67870;DHT22;54673;52.262;6.830;2023-04-29T00:02:19;17.80;52.60
67870;DHT22;54673;52.262;6.830;2023-04-29T00:04:45;17.80;52.50
67870;DHT22;54673;52.262;6.830;2023-04-29T00:07:10;17.70;52.50
67870;DHT22;54673;52.262;6.830;2023-04-29T00:09:39;17.70;52.50
67870;DHT22;54673;52.262;6.830;2023-04-29T00:12:05;17.70;52.50
67870;DHT22;54673;52.262;6.830;2023-04-29T00:14:30;17.70;52.60
67870;DHT22;54673;52.262;6.830;2023-04-29T00:16:56;17.70;52.60
67870;DHT22;54673;52.262;6.830;2023-04-29T00:19:22;17.70;52.80
67870;DHT22;54673;52.262;6.830;2023-04-29T00:21:48;17.70;52.80
67870;DHT22;54673;52.262;6.830;2023-04-29T00:24:13;17.70;52.80
67870;DHT22;54673;52.262;6.830;2023-04-29T00:26:39;17.70;52.90
67870;DHT22;54673;52.262;6.830;2023-04-29T00:29:05;17.70;52.90
67870;DHT22;54673;52.262;6.830;2023-04-29T00:31:31;17.70;52.90
67870;DHT22;54673;52.262;6.830;2023-04-29T00:33:57;17.70;52.80
67870;DHT22;54673;52.262;6.830;2023-04-29T00:36:22;17.70;52.70
67870;DHT22;54673;52.262;6.830;2023-04-29T00:38:48;17.70;52.80
67870;DHT22;54673;52.262;6.830;2023-04-29T00:41:13;17.70;53.00
67870;DHT22;54673;52.262;6.830;2023-04-29T00:43:39;17.70;52.90
67870;DHT22;54673;52.262;6.830;2023-04-29T00:46:05;17.60;52.90
67870;DHT22;54673;52.262;6.830;2023-04-29T00:48:30;17.70;53.00
67870;DHT22;54673;52.262;6.830;2023-04-29T00:50:57;17.60;53.00
67870;DHT22;54673;52.262;6.830;2023-04-29T00:53:22;17.60;53.20
67870;DHT22;54673;52.262;6.830;2023-04-29T00:55:49;17.60;53.10
67870;DHT22;54673;52.262;6.830;2023-04-29T00:58:17;17.60;53.20
67870;DHT22;54673;52.262;6.830;2023-04-29T01:00:43;17.60;53.20
67870;DHT22;54673;52.262;6.830;2023-04-29T01:03:11;17.60;53.30
67870;DHT22;54673;52.262;6.830;2023-04-29T01:05:37;17.60;53.40
67870;DHT22;54673;52.262;6.830;2023-04-29T01:08:17;17.60;53.20
67870;DHT22;54673;52.262;6.830;2023-04-29T01:10:55;17.60;53.20
67870;DHT22;54673;52.262;6.830;2023-04-29T01:13:34;17.60;53.50
67870;DHT22;54673;52.262;6.830;2023-04-29T01:16:03;17.60;53.30
67870;DHT22;54673;52.262;6.830;2023-04-29T01:18:51;17.60;53.40
67870;DHT22;54673;52.262;6.830;2023-04-29T01:21:19;17.60;53.40
67870;DHT22;54673;52.262;6.830;2023-04-29T01:23:45;17.60;53.50
67870;DHT22;54673;52.262;6.830;2023-04-29T01:26:10;17.60;53.50
67870;DHT22;54673;52.262;6.830;2023-04-29T01:28:53;17.60;53.60
67870;DHT22;54673;52.262;6.830;2023-04-29T01:31:31;17.60;53.50
67870;DHT22;54673;52.262;6.830;2023-04-29T01:34:08;17.60;53.50
67870;DHT22;54673;52.262;6.830;2023-04-29T01:45:10;17.50;53.50
67870;DHT22;54673;52.262;6.830;2023-04-29T01:47:39;17.50;53.50
67870;DHT22;54673;52.262;6.830;2023-04-29T01:50:06;17.50;54.40
67870;DHT22;54673;52.262;6.830;2023-04-29T01:52:31;17.50;53.60
67870;DHT22;54673;52.262;6.830;2023-04-29T01:54:57;17.50;53.70
67870;DHT22;54673;52.262;6.830;2023-04-29T01:57:22;17.50;53.70
67870;DHT22;54673;52.262;6.830;2023-04-29T01:59:48;17.50;53.80
67870;DHT22;54673;52.262;6.830;2023-04-29T02:02:13;17.50;53.80
67870;DHT22;54673;52.262;6.830;2023-04-29T02:04:39;17.50;53.60
67870;DHT22;54673;52.262;6.830;2023-04-29T02:07:05;17.50;53.60
67870;DHT22;54673;52.262;6.830;2023-04-29T02:09:31;17.50;53.70
67870;DHT22;54673;52.262;6.830;2023-04-29T02:11:57;17.50;53.70
67870;DHT22;54673;52.262;6.830;2023-04-29T02:14:22;17.50;53.70
67870;DHT22;54673;52.262;6.830;2023-04-29T02:16:48;17.50;53.70
67870;DHT22;54673;52.262;6.830;2023-04-29T02:19:13;17.50;53.80
67870;DHT22;54673;52.262;6.830;2023-04-29T02:21:39;17.50;53.70
67870;DHT22;54673;52.262;6.830;2023-04-29T02:24:05;17.50;53.80
67870;DHT22;54673;52.262;6.830;2023-04-29T02:26:31;17.50;53.70
67870;DHT22;54673;52.262;6.830;2023-04-29T02:28:58;17.50;53.80
67870;DHT22;54673;52.262;6.830;2023-04-29T02:31:24;17.50;53.80
67870;DHT22;54673;52.262;6.830;2023-04-29T02:33:49;17.50;53.90
67870;DHT22;54673;52.262;6.830;2023-04-29T02:36:15;17.50;53.80
67870;DHT22;54673;52.262;6.830;2023-04-29T02:38:42;17.50;53.90
67870;DHT22;54673;52.262;6.830;2023-04-29T02:41:08;17.50;54.80
67870;DHT22;54673;52.262;6.830;2023-04-29T02:43:34;17.50;54.00
67870;DHT22;54673;52.262;6.830;2023-04-29T02:45:59;17.40;53.80
67870;DHT22;54673;52.262;6.830;2023-04-29T02:48:25;17.40;53.90
67870;DHT22;54673;52.262;6.830;2023-04-29T02:50:51;17.50;53.80
67870;DHT22;54673;52.262;6.830;2023-04-29T02:53:17;17.40;53.70
67870;DHT22;54673;52.262;6.830;2023-04-29T02:55:42;17.40;53.80
67870;DHT22;54673;52.262;6.830;2023-04-29T02:58:08;17.40;53.70
67870;DHT22;54673;52.262;6.830;2023-04-29T03:00:34;17.40;53.80
67870;DHT22;54673;52.262;6.830;2023-04-29T03:02:59;17.40;53.70
67870;DHT22;54673;52.262;6.830;2023-04-29T03:05:25;17.40;53.70
67870;DHT22;54673;52.262;6.830;2023-04-29T03:07:51;17.40;53.80
67870;DHT22;54673;52.262;6.830;2023-04-29T03:10:17;17.40;53.70
67870;DHT22;54673;52.262;6.830;2023-04-29T03:12:43;17.40;53.90
67870;DHT22;54673;52.262;6.830;2023-04-29T03:15:09;17.40;53.80
67870;DHT22;54673;52.262;6.830;2023-04-29T03:17:35;17.40;53.80
67870;DHT22;54673;52.262;6.830;2023-04-29T03:20:01;17.40;53.80
67870;DHT22;54673;52.262;6.830;2023-04-29T03:22:27;17.40;53.70
67870;DHT22;54673;52.262;6.830;2023-04-29T03:24:52;17.40;53.60
67870;DHT22;54673;52.262;6.830;2023-04-29T03:27:18;17.40;53.70
67870;DHT22;54673;52.262;6.830;2023-04-29T03:29:44;17.40;53.70
67870;DHT22;54673;52.262;6.830;2023-04-29T03:32:09;17.40;53.80
67870;DHT22;54673;52.262;6.830;2023-04-29T03:34:35;17.40;53.90
67870;DHT22;54673;52.262;6.830;2023-04-29T03:37:01;17.40;53.80
67870;DHT22;54673;52.262;6.830;2023-04-29T03:39:27;17.40;53.90
67870;DHT22;54673;52.262;6.830;2023-04-29T03:41:59;17.40;53.90
67870;DHT22;54673;52.262;6.830;2023-04-29T03:44:25;17.40;53.80
67870;DHT22;54673;52.262;6.830;2023-04-29T03:46:51;17.30;53.80
67870;DHT22;54673;52.262;6.830;2023-04-29T03:49:17;17.30;53.90
67870;DHT22;54673;52.262;6.830;2023-04-29T03:51:43;17.30;53.80
67870;DHT22;54673;52.262;6.830;2023-04-29T03:54:11;17.30;53.90
67870;DHT22;54673;52.262;6.830;2023-04-29T03:56:37;17.40;53.90
67870;DHT22;54673;52.262;6.830;2023-04-29T03:59:03;17.30;53.80
67870;DHT22;54673;52.262;6.830;2023-04-29T04:01:29;17.30;53.90
67870;DHT22;54673;52.262;6.830;2023-04-29T04:03:54;17.30;53.70
67870;DHT22;54673;52.262;6.830;2023-04-29T04:06:20;17.30;53.70
67870;DHT22;54673;52.262;6.830;2023-04-29T04:08:46;17.30;53.60
67870;DHT22;54673;52.262;6.830;2023-04-29T04:11:12;17.30;53.70
67870;DHT22;54673;52.262;6.830;2023-04-29T04:13:42;17.30;53.60
67870;DHT22;54673;52.262;6.830;2023-04-29T04:16:09;17.30;53.70
67870;DHT22;54673;52.262;6.830;2023-04-29T04:18:37;17.30;53.70
67870;DHT22;54673;52.262;6.830;2023-04-29T04:21:06;17.30;53.70
67870;DHT22;54673;52.262;6.830;2023-04-29T04:23:32;17.30;53.80
67870;DHT22;54673;52.262;6.830;2023-04-29T04:25:58;17.30;53.70
67870;DHT22;54673;52.262;6.830;2023-04-29T04:28:23;17.30;53.80
67870;DHT22;54673;52.262;6.830;2023-04-29T04:30:49;17.30;53.80
67870;DHT22;54673;52.262;6.830;2023-04-29T04:33:15;17.30;53.80
67870;DHT22;54673;52.262;6.830;2023-04-29T04:35:41;17.30;53.90
67870;DHT22;54673;52.262;6.830;2023-04-29T04:38:07;17.30;53.80
67870;DHT22;54673;52.262;6.830;2023-04-29T04:40:33;17.30;53.80
67870;DHT22;54673;52.262;6.830;2023-04-29T04:42:59;17.30;53.80
67870;DHT22;54673;52.262;6.830;2023-04-29T04:45:27;17.30;53.80
67870;DHT22;54673;52.262;6.830;2023-04-29T04:47:52;17.30;53.90
67870;DHT22;54673;52.262;6.830;2023-04-29T04:50:19;17.30;53.80
67870;DHT22;54673;52.262;6.830;2023-04-29T04:52:44;17.30;53.80
67870;DHT22;54673;52.262;6.830;2023-04-29T04:55:10;17.30;53.70
67870;DHT22;54673;52.262;6.830;2023-04-29T04:57:36;17.30;53.80
67870;DHT22;54673;52.262;6.830;2023-04-29T05:00:01;17.30;54.70
67870;DHT22;54673;52.262;6.830;2023-04-29T05:02:28;17.30;53.80
67870;DHT22;54673;52.262;6.830;2023-04-29T05:04:54;17.30;53.70
67870;DHT22;54673;52.262;6.830;2023-04-29T05:07:19;17.30;53.80
67870;DHT22;54673;52.262;6.830;2023-04-29T05:09:45;17.30;53.70
67870;DHT22;54673;52.262;6.830;2023-04-29T05:12:10;17.30;53.80
67870;DHT22;54673;52.262;6.830;2023-04-29T05:14:36;17.20;53.70
67870;DHT22;54673;52.262;6.830;2023-04-29T05:17:02;17.20;53.80
67870;DHT22;54673;52.262;6.830;2023-04-29T05:19:27;17.30;54.00
67870;DHT22;54673;52.262;6.830;2023-04-29T05:21:53;17.30;53.90
67870;DHT22;54673;52.262;6.830;2023-04-29T05:24:19;17.30;53.70
67870;DHT22;54673;52.262;6.830;2023-04-29T05:26:45;17.30;53.60
67870;DHT22;54673;52.262;6.830;2023-04-29T05:29:11;17.30;53.60
67870;DHT22;54673;52.262;6.830;2023-04-29T05:31:37;17.30;53.40
67870;DHT22;54673;52.262;6.830;2023-04-29T05:34:03;17.30;53.40
67870;DHT22;54673;52.262;6.830;2023-04-29T05:36:29;17.20;53.20
67870;DHT22;54673;52.262;6.830;2023-04-29T05:38:54;17.20;53.20
67870;DHT22;54673;52.262;6.830;2023-04-29T05:41:20;17.20;53.10
67870;DHT22;54673;52.262;6.830;2023-04-29T05:43:46;17.20;53.10
67870;DHT22;54673;52.262;6.830;2023-04-29T05:46:11;17.20;53.00
67870;DHT22;54673;52.262;6.830;2023-04-29T05:48:37;17.20;53.00
67870;DHT22;54673;52.262;6.830;2023-04-29T05:51:03;17.20;52.90
67870;DHT22;54673;52.262;6.830;2023-04-29T05:53:28;17.30;53.00
67870;DHT22;54673;52.262;6.830;2023-04-29T05:55:54;17.20;52.90
67870;DHT22;54673;52.262;6.830;2023-04-29T05:58:21;17.20;52.80
67870;DHT22;54673;52.262;6.830;2023-04-29T06:00:47;17.20;52.80
67870;DHT22;54673;52.262;6.830;2023-04-29T06:03:13;17.20;52.80
67870;DHT22;54673;52.262;6.830;2023-04-29T06:05:39;17.20;52.80
67870;DHT22;54673;52.262;6.830;2023-04-29T06:08:05;17.20;52.80
67870;DHT22;54673;52.262;6.830;2023-04-29T06:10:30;17.20;52.80
67870;DHT22;54673;52.262;6.830;2023-04-29T06:12:57;17.20;52.80
67870;DHT22;54673;52.262;6.830;2023-04-29T06:15:23;17.20;52.70
67870;DHT22;54673;52.262;6.830;2023-04-29T06:17:48;17.20;52.70
67870;DHT22;54673;52.262;6.830;2023-04-29T06:20:14;17.20;52.60
67870;DHT22;54673;52.262;6.830;2023-04-29T06:22:39;17.20;52.60
67870;DHT22;54673;52.262;6.830;2023-04-29T06:25:05;17.20;52.50
67870;DHT22;54673;52.262;6.830;2023-04-29T06:27:31;17.20;52.50
67870;DHT22;54673;52.262;6.830;2023-04-29T06:29:57;17.20;52.40
67870;DHT22;54673;52.262;6.830;2023-04-29T06:32:23;17.20;52.40
67870;DHT22;54673;52.262;6.830;2023-04-29T06:34:48;17.20;52.30
67870;DHT22;54673;52.262;6.830;2023-04-29T06:37:14;17.20;52.30
67870;DHT22;54673;52.262;6.830;2023-04-29T06:39:40;17.20;52.30
67870;DHT22;54673;52.262;6.830;2023-04-29T06:42:05;17.20;52.30
67870;DHT22;54673;52.262;6.830;2023-04-29T06:44:31;17.20;52.20
67870;DHT22;54673;52.262;6.830;2023-04-29T06:46:57;17.20;52.20
67870;DHT22;54673;52.262;6.830;2023-04-29T06:49:22;17.20;52.20
67870;DHT22;54673;52.262;6.830;2023-04-29T06:51:48;17.20;52.20
67870;DHT22;54673;52.262;6.830;2023-04-29T06:54:13;17.20;52.20
67870;DHT22;54673;52.262;6.830;2023-04-29T06:56:39;17.20;52.20
67870;DHT22;54673;52.262;6.830;2023-04-29T06:59:05;17.20;52.20
67870;DHT22;54673;52.262;6.830;2023-04-29T07:01:30;17.20;52.20
67870;DHT22;54673;52.262;6.830;2023-04-29T07:03:56;17.20;52.20
67870;DHT22;54673;52.262;6.830;2023-04-29T07:06:21;17.20;52.20
67870;DHT22;54673;52.262;6.830;2023-04-29T07:08:47;17.20;52.20
67870;DHT22;54673;52.262;6.830;2023-04-29T07:11:13;17.20;52.20
67870;DHT22;54673;52.262;6.830;2023-04-29T07:13:38;17.20;52.20
67870;DHT22;54673;52.262;6.830;2023-04-29T07:16:04;17.20;52.20
67870;DHT22;54673;52.262;6.830;2023-04-29T07:18:29;17.20;52.20
67870;DHT22;54673;52.262;6.830;2023-04-29T07:21:00;17.20;52.20
67870;DHT22;54673;52.262;6.830;2023-04-29T07:23:26;17.20;52.20
67870;DHT22;54673;52.262;6.830;2023-04-29T07:25:51;17.20;52.20
67870;DHT22;54673;52.262;6.830;2023-04-29T07:28:17;17.20;52.20
67870;DHT22;54673;52.262;6.830;2023-04-29T07:30:42;17.20;52.20
67870;DHT22;54673;52.262;6.830;2023-04-29T07:33:08;17.20;52.20
67870;DHT22;54673;52.262;6.830;2023-04-29T07:35:34;17.20;52.30
67870;DHT22;54673;52.262;6.830;2023-04-29T07:38:00;17.20;52.20
67870;DHT22;54673;52.262;6.830;2023-04-29T07:40:25;17.20;52.40
67870;DHT22;54673;52.262;6.830;2023-04-29T07:42:51;17.20;52.50
67870;DHT22;54673;52.262;6.830;2023-04-29T07:45:16;17.20;52.60
67870;DHT22;54673;52.262;6.830;2023-04-29T07:47:42;17.30;52.70
67870;DHT22;54673;52.262;6.830;2023-04-29T07:50:08;17.20;52.70
67870;DHT22;54673;52.262;6.830;2023-04-29T07:52:33;17.20;52.60
67870;DHT22;54673;52.262;6.830;2023-04-29T07:54:59;17.20;52.70
67870;DHT22;54673;52.262;6.830;2023-04-29T07:57:25;17.20;52.60
67870;DHT22;54673;52.262;6.830;2023-04-29T07:59:53;17.20;52.70
67870;DHT22;54673;52.262;6.830;2023-04-29T08:02:19;17.20;52.70
67870;DHT22;54673;52.262;6.830;2023-04-29T08:04:45;17.30;52.80
67870;DHT22;54673;52.262;6.830;2023-04-29T08:07:11;17.20;52.80
67870;DHT22;54673;52.262;6.830;2023-04-29T08:09:37;17.30;52.90
67870;DHT22;54673;52.262;6.830;2023-04-29T08:12:03;17.30;53.70
67870;DHT22;54673;52.262;6.830;2023-04-29T08:14:29;17.30;52.90
67870;DHT22;54673;52.262;6.830;2023-04-29T08:16:55;17.30;52.90
67870;DHT22;54673;52.262;6.830;2023-04-29T08:19:20;17.30;52.90
67870;DHT22;54673;52.262;6.830;2023-04-29T08:21:46;17.30;52.90
67870;DHT22;54673;52.262;6.830;2023-04-29T08:24:12;17.30;52.90
67870;DHT22;54673;52.262;6.830;2023-04-29T08:26:41;17.30;52.80
67870;DHT22;54673;52.262;6.830;2023-04-29T08:29:07;17.30;52.90
67870;DHT22;54673;52.262;6.830;2023-04-29T08:31:32;17.30;52.90
67870;DHT22;54673;52.262;6.830;2023-04-29T08:33:58;17.30;52.80
67870;DHT22;54673;52.262;6.830;2023-04-29T08:36:24;17.30;52.80
67870;DHT22;54673;52.262;6.830;2023-04-29T08:38:52;17.30;52.90
67870;DHT22;54673;52.262;6.830;2023-04-29T08:41:17;17.30;52.90
67870;DHT22;54673;52.262;6.830;2023-04-29T08:43:43;17.30;52.90
67870;DHT22;54673;52.262;6.830;2023-04-29T08:46:08;17.30;52.90
67870;DHT22;54673;52.262;6.830;2023-04-29T08:48:36;17.30;52.90
67870;DHT22;54673;52.262;6.830;2023-04-29T08:51:02;17.50;53.20
67870;DHT22;54673;52.262;6.830;2023-04-29T08:53:28;17.40;53.20
67870;DHT22;54673;52.262;6.830;2023-04-29T08:55:54;17.40;53.20
67870;DHT22;54673;52.262;6.830;2023-04-29T08:58:21;17.40;53.30
67870;DHT22;54673;52.262;6.830;2023-04-29T09:00:47;17.50;53.60
67870;DHT22;54673;52.262;6.830;2023-04-29T09:03:57;17.50;53.60
67870;DHT22;54673;52.262;6.830;2023-04-29T09:06:26;17.50;53.90
67870;DHT22;54673;52.262;6.830;2023-04-29T09:08:52;17.60;53.90
67870;DHT22;54673;52.262;6.830;2023-04-29T09:11:18;17.60;53.90
67870;DHT22;54673;52.262;6.830;2023-04-29T09:13:44;17.60;53.80
67870;DHT22;54673;52.262;6.830;2023-04-29T09:16:13;17.60;53.50
67870;DHT22;54673;52.262;6.830;2023-04-29T09:18:49;17.70;53.90
67870;DHT22;54673;52.262;6.830;2023-04-29T09:23:40;17.70;53.70
67870;DHT22;54673;52.262;6.830;2023-04-29T09:26:06;17.80;53.70
67870;DHT22;54673;52.262;6.830;2023-04-29T09:28:32;17.80;53.80
67870;DHT22;54673;52.262;6.830;2023-04-29T09:30:58;17.80;53.70
67870;DHT22;54673;52.262;6.830;2023-04-29T09:33:24;17.90;53.80
67870;DHT22;54673;52.262;6.830;2023-04-29T09:35:53;17.90;54.60
67870;DHT22;54673;52.262;6.830;2023-04-29T09:38:18;17.90;53.70
67870;DHT22;54673;52.262;6.830;2023-04-29T09:40:45;17.90;53.80
67870;DHT22;54673;52.262;6.830;2023-04-29T09:43:13;18.00;53.80
67870;DHT22;54673;52.262;6.830;2023-04-29T09:45:41;18.00;53.80
67870;DHT22;54673;52.262;6.830;2023-04-29T09:48:08;18.00;53.80
67870;DHT22;54673;52.262;6.830;2023-04-29T09:50:34;18.00;53.80
67870;DHT22;54673;52.262;6.830;2023-04-29T09:53:04;18.10;54.70
67870;DHT22;54673;52.262;6.830;2023-04-29T09:55:30;18.10;53.80
67870;DHT22;54673;52.262;6.830;2023-04-29T09:57:56;18.20;53.70
67870;DHT22;54673;52.262;6.830;2023-04-29T10:00:23;18.20;53.80
67870;DHT22;54673;52.262;6.830;2023-04-29T10:02:50;18.10;53.50
67870;DHT22;54673;52.262;6.830;2023-04-29T10:05:18;18.20;53.60
67870;DHT22;54673;52.262;6.830;2023-04-29T10:07:46;18.20;53.50
67870;DHT22;54673;52.262;6.830;2023-04-29T10:10:15;18.20;53.50
67870;DHT22;54673;52.262;6.830;2023-04-29T10:12:42;18.20;53.50
67870;DHT22;54673;52.262;6.830;2023-04-29T10:15:12;18.20;53.40
67870;DHT22;54673;52.262;6.830;2023-04-29T10:17:48;18.30;53.50
67870;DHT22;54673;52.262;6.830;2023-04-29T10:20:24;18.30;53.50
67870;DHT22;54673;52.262;6.830;2023-04-29T10:22:51;18.40;53.50
67870;DHT22;54673;52.262;6.830;2023-04-29T10:25:19;18.40;53.20
67870;DHT22;54673;52.262;6.830;2023-04-29T10:27:46;18.40;53.00
67870;DHT22;54673;52.262;6.830;2023-04-29T10:30:14;18.40;52.80
67870;DHT22;54673;52.262;6.830;2023-04-29T10:32:41;18.40;52.80
67870;DHT22;54673;52.262;6.830;2023-04-29T10:35:08;18.40;53.00
67870;DHT22;54673;52.262;6.830;2023-04-29T10:37:35;18.40;53.00
67870;DHT22;54673;52.262;6.830;2023-04-29T10:40:11;18.40;53.00
67870;DHT22;54673;52.262;6.830;2023-04-29T10:42:48;18.40;53.00
67870;DHT22;54673;52.262;6.830;2023-04-29T10:45:28;18.50;53.10
67870;DHT22;54673;52.262;6.830;2023-04-29T10:50:28;18.50;53.00
67870;DHT22;54673;52.262;6.830;2023-04-29T10:52:56;18.60;53.10
67870;DHT22;54673;52.262;6.830;2023-04-29T10:55:23;18.60;53.10
67870;DHT22;54673;52.262;6.830;2023-04-29T10:57:51;18.60;53.00
67870;DHT22;54673;52.262;6.830;2023-04-29T11:00:22;18.60;53.00
67870;DHT22;54673;52.262;6.830;2023-04-29T11:03:01;18.70;53.00
67870;DHT22;54673;52.262;6.830;2023-04-29T11:05:34;18.70;53.00
67870;DHT22;54673;52.262;6.830;2023-04-29T11:08:14;18.70;53.00
67870;DHT22;54673;52.262;6.830;2023-04-29T11:10:49;18.70;53.10
67870;DHT22;54673;52.262;6.830;2023-04-29T11:13:24;18.80;53.00
67870;DHT22;54673;52.262;6.830;2023-04-29T11:16:02;18.80;53.00
67870;DHT22;54673;52.262;6.830;2023-04-29T11:18:28;18.80;53.10
67870;DHT22;54673;52.262;6.830;2023-04-29T11:23:36;18.80;53.00
67870;DHT22;54673;52.262;6.830;2023-04-29T11:26:02;18.80;53.00
67870;DHT22;54673;52.262;6.830;2023-04-29T11:28:30;18.80;53.00
67870;DHT22;54673;52.262;6.830;2023-04-29T11:30:57;18.90;53.10
67870;DHT22;54673;52.262;6.830;2023-04-29T11:33:23;18.90;53.10
67870;DHT22;54673;52.262;6.830;2023-04-29T11:35:49;18.90;53.00
67870;DHT22;54673;52.262;6.830;2023-04-29T11:38:16;18.90;52.90
67870;DHT22;54673;52.262;6.830;2023-04-29T11:40:47;18.90;52.80
67870;DHT22;54673;52.262;6.830;2023-04-29T11:43:17;18.90;52.80
67870;DHT22;54673;52.262;6.830;2023-04-29T11:45:44;18.90;52.70
67870;DHT22;54673;52.262;6.830;2023-04-29T11:48:17;18.90;52.70
67870;DHT22;54673;52.262;6.830;2023-04-29T11:50:45;18.80;52.60
67870;DHT22;54673;52.262;6.830;2023-04-29T11:53:10;18.80;52.60
67870;DHT22;54673;52.262;6.830;2023-04-29T11:55:36;18.80;52.50
67870;DHT22;54673;52.262;6.830;2023-04-29T11:58:04;18.80;52.60
67870;DHT22;54673;52.262;6.830;2023-04-29T12:00:30;18.70;52.50
67870;DHT22;54673;52.262;6.830;2023-04-29T12:02:57;18.70;52.50
67870;DHT22;54673;52.262;6.830;2023-04-29T12:05:24;18.70;52.50
67870;DHT22;54673;52.262;6.830;2023-04-29T12:07:50;18.70;52.50
67870;DHT22;54673;52.262;6.830;2023-04-29T12:10:16;18.80;53.50
67870;DHT22;54673;52.262;6.830;2023-04-29T12:12:42;18.80;52.70
67870;DHT22;54673;52.262;6.830;2023-04-29T12:15:09;18.80;52.90
67870;DHT22;54673;52.262;6.830;2023-04-29T12:17:35;18.80;52.90
67870;DHT22;54673;52.262;6.830;2023-04-29T12:20:09;18.80;52.90
67870;DHT22;54673;52.262;6.830;2023-04-29T12:22:35;18.90;53.10
67870;DHT22;54673;52.262;6.830;2023-04-29T12:25:05;18.90;53.10
67870;DHT22;54673;52.262;6.830;2023-04-29T12:27:31;18.90;53.10
67870;DHT22;54673;52.262;6.830;2023-04-29T12:29:58;18.90;53.10
67870;DHT22;54673;52.262;6.830;2023-04-29T12:32:24;18.90;53.10
67870;DHT22;54673;52.262;6.830;2023-04-29T12:34:50;19.00;53.10
67870;DHT22;54673;52.262;6.830;2023-04-29T12:37:20;19.00;53.10
67870;DHT22;54673;52.262;6.830;2023-04-29T12:42:15;19.00;53.20
67870;DHT22;54673;52.262;6.830;2023-04-29T12:44:47;19.00;53.10
67870;DHT22;54673;52.262;6.830;2023-04-29T12:47:13;19.10;53.20
67870;DHT22;54673;52.262;6.830;2023-04-29T12:49:46;19.10;53.10
67870;DHT22;54673;52.262;6.830;2023-04-29T12:52:12;19.10;53.10
67870;DHT22;54673;52.262;6.830;2023-04-29T12:54:41;19.10;53.20
67870;DHT22;54673;52.262;6.830;2023-04-29T12:57:08;19.20;53.20
67870;DHT22;54673;52.262;6.830;2023-04-29T12:59:34;19.20;53.10
67870;DHT22;54673;52.262;6.830;2023-04-29T13:02:00;19.20;53.10
67870;DHT22;54673;52.262;6.830;2023-04-29T13:04:25;19.20;53.10
67870;DHT22;54673;52.262;6.830;2023-04-29T13:06:51;19.30;53.10
67870;DHT22;54673;52.262;6.830;2023-04-29T13:09:24;19.20;53.00
67870;DHT22;54673;52.262;6.830;2023-04-29T13:11:49;19.30;52.90
67870;DHT22;54673;52.262;6.830;2023-04-29T13:14:16;19.30;52.90
67870;DHT22;54673;52.262;6.830;2023-04-29T13:16:41;19.30;52.90
67870;DHT22;54673;52.262;6.830;2023-04-29T13:19:07;18.90;52.70
67870;DHT22;54673;52.262;6.830;2023-04-29T13:21:33;19.30;52.80
67870;DHT22;54673;52.262;6.830;2023-04-29T13:23:58;19.40;52.90
67870;DHT22;54673;52.262;6.830;2023-04-29T13:26:24;19.40;53.70
67870;DHT22;54673;52.262;6.830;2023-04-29T13:28:50;19.40;52.80
67870;DHT22;54673;52.262;6.830;2023-04-29T13:31:16;19.40;52.70
67870;DHT22;54673;52.262;6.830;2023-04-29T13:33:42;19.40;52.70
67870;DHT22;54673;52.262;6.830;2023-04-29T13:36:08;19.40;52.60
67870;DHT22;54673;52.262;6.830;2023-04-29T13:38:34;19.50;52.70
67870;DHT22;54673;52.262;6.830;2023-04-29T13:40:59;19.50;52.70
67870;DHT22;54673;52.262;6.830;2023-04-29T13:43:25;19.50;52.80
67870;DHT22;54673;52.262;6.830;2023-04-29T13:45:51;19.50;52.70
67870;DHT22;54673;52.262;6.830;2023-04-29T13:48:16;19.50;52.70
67870;DHT22;54673;52.262;6.830;2023-04-29T13:50:43;19.50;52.70
67870;DHT22;54673;52.262;6.830;2023-04-29T13:53:09;19.60;52.70
67870;DHT22;54673;52.262;6.830;2023-04-29T13:55:35;19.60;52.70
67870;DHT22;54673;52.262;6.830;2023-04-29T13:58:01;19.60;52.70
67870;DHT22;54673;52.262;6.830;2023-04-29T14:00:26;19.70;53.60
67870;DHT22;54673;52.262;6.830;2023-04-29T14:02:52;19.70;52.60
67870;DHT22;54673;52.262;6.830;2023-04-29T14:05:18;19.70;52.60
67870;DHT22;54673;52.262;6.830;2023-04-29T14:07:43;19.70;52.60
67870;DHT22;54673;52.262;6.830;2023-04-29T14:10:09;19.70;52.50
67870;DHT22;54673;52.262;6.830;2023-04-29T14:12:34;19.80;52.60
67870;DHT22;54673;52.262;6.830;2023-04-29T14:15:00;19.80;52.60
67870;DHT22;54673;52.262;6.830;2023-04-29T14:17:26;19.80;52.60
67870;DHT22;54673;52.262;6.830;2023-04-29T14:19:52;19.80;52.70
67870;DHT22;54673;52.262;6.830;2023-04-29T14:22:17;19.80;52.60
67870;DHT22;54673;52.262;6.830;2023-04-29T14:24:43;19.90;52.60
67870;DHT22;54673;52.262;6.830;2023-04-29T14:27:09;19.90;52.60
67870;DHT22;54673;52.262;6.830;2023-04-29T14:29:34;19.90;52.60
67870;DHT22;54673;52.262;6.830;2023-04-29T14:32:00;19.90;52.60
67870;DHT22;54673;52.262;6.830;2023-04-29T14:34:26;19.90;52.50
67870;DHT22;54673;52.262;6.830;2023-04-29T14:36:51;19.90;52.50
67870;DHT22;54673;52.262;6.830;2023-04-29T14:39:17;19.90;52.40
67870;DHT22;54673;52.262;6.830;2023-04-29T14:41:42;20.00;52.40
67870;DHT22;54673;52.262;6.830;2023-04-29T14:44:08;20.00;52.30
67870;DHT22;54673;52.262;6.830;2023-04-29T14:46:34;20.00;52.40
67870;DHT22;54673;52.262;6.830;2023-04-29T14:48:59;20.00;52.40
67870;DHT22;54673;52.262;6.830;2023-04-29T14:51:25;20.00;52.40
67870;DHT22;54673;52.262;6.830;2023-04-29T14:53:51;20.00;52.40
67870;DHT22;54673;52.262;6.830;2023-04-29T14:56:17;20.00;52.40
67870;DHT22;54673;52.262;6.830;2023-04-29T14:58:43;20.00;52.30
67870;DHT22;54673;52.262;6.830;2023-04-29T15:01:09;20.00;52.10
67870;DHT22;54673;52.262;6.830;2023-04-29T15:03:34;20.00;53.00
67870;DHT22;54673;52.262;6.830;2023-04-29T15:06:01;20.00;52.10
67870;DHT22;54673;52.262;6.830;2023-04-29T15:08:28;20.00;52.20
67870;DHT22;54673;52.262;6.830;2023-04-29T15:10:53;20.10;52.10
67870;DHT22;54673;52.262;6.830;2023-04-29T15:13:19;19.90;51.90
67870;DHT22;54673;52.262;6.830;2023-04-29T15:15:44;20.10;52.10
67870;DHT22;54673;52.262;6.830;2023-04-29T15:18:10;20.10;52.10
67870;DHT22;54673;52.262;6.830;2023-04-29T15:20:36;20.20;52.10
67870;DHT22;54673;52.262;6.830;2023-04-29T15:23:03;20.20;52.00
67870;DHT22;54673;52.262;6.830;2023-04-29T15:25:29;20.20;52.00
67870;DHT22;54673;52.262;6.830;2023-04-29T15:27:55;20.20;52.00
67870;DHT22;54673;52.262;6.830;2023-04-29T15:30:24;20.20;52.00
67870;DHT22;54673;52.262;6.830;2023-04-29T15:32:49;20.20;52.00
67870;DHT22;54673;52.262;6.830;2023-04-29T15:35:15;20.20;52.00
67870;DHT22;54673;52.262;6.830;2023-04-29T15:37:40;20.20;52.00
67870;DHT22;54673;52.262;6.830;2023-04-29T15:40:07;20.20;52.00
67870;DHT22;54673;52.262;6.830;2023-04-29T15:42:33;20.30;52.00
67870;DHT22;54673;52.262;6.830;2023-04-29T15:44:59;20.30;52.00
67870;DHT22;54673;52.262;6.830;2023-04-29T15:47:24;20.30;52.00